Time;durP1;ratioP1;P1;durP2;ratioP2;P2;SDS_P1;SDS_P2;PMS_P1;PMS_P2;Temp;Humidity;BMP_temperature;BMP_pressure;BME280_temperature;BME280_humidity;BME280_pressure;Samples;Min_cycle;Max_cycle;Signal;HPM_P1;HPM_P2
2022/04/10 00:00:04;;;;;;;;;;;21.00;27.10;;;;;;5102157;28;20363;-55
2022/04/10 00:02:30;;;;;;;;;;;21.20;26.90;;;;;;5121301;28;20311;-60
2022/04/10 00:04:55;;;;;;;;;;;21.10;27.00;;;;;;5124822;28;19930;-58
2022/04/10 00:07:21;;;;;;;;;;;21.10;26.90;;;;;;5120566;28;20323;-59
2022/04/10 00:09:47;;;;;;;;;;;21.00;27.00;;;;;;5123919;28;19923;-57
2022/04/10 00:12:13;;;;;;;;;;;21.10;26.90;;;;;;5122909;28;19923;-49
2022/04/10 00:14:38;;;;;;;;;;;21.10;26.90;;;;;;5121250;28;20452;-59
2022/04/10 00:17:04;;;;;;;;;;;21.10;26.90;;;;;;5125268;28;19923;-55
2022/04/10 00:19:31;;;;;;;;;;;21.10;26.80;;;;;;5121194;28;19930;-58
2022/04/10 00:21:56;;;;;;;;;;;21.20;26.80;;;;;;5120412;28;19928;-57
2022/04/10 00:24:25;;;;;;;;;;;21.00;27.00;;;;;;5124507;28;19976;-58
2022/04/10 00:26:52;;;;;;;;;;;21.20;26.70;;;;;;5102212;28;20014;-59
2022/04/10 00:29:18;;;;;;;;;;;20.80;27.20;;;;;;5120896;28;19934;-59
2022/04/10 00:31:43;;;;;;;;;;;21.00;26.60;;;;;;5126578;28;19924;-55
2022/04/10 00:34:09;;;;;;;;;;;21.20;26.50;;;;;;5121189;28;19923;-59
2022/04/10 00:36:35;;;;;;;;;;;21.10;26.50;;;;;;5125196;28;19931;-57
2022/04/10 00:39:01;;;;;;;;;;;21.30;26.30;;;;;;5120761;28;19924;-60
2022/04/10 00:41:26;;;;;;;;;;;21.00;26.60;;;;;;5100554;28;19927;-51
2022/04/10 00:44:03;;;;;;;;;;;21.20;26.20;;;;;;5105420;28;19927;-60
2022/04/10 00:46:28;;;;;;;;;;;20.90;26.60;;;;;;5119009;28;19927;-59
2022/04/10 00:48:54;;;;;;;;;;;21.20;26.30;;;;;;5120878;28;20618;-59
2022/04/10 00:54:04;;;;;;;;;;;21.20;26.30;;;;;;5119771;28;20279;-59
2022/04/10 00:56:30;;;;;;;;;;;21.10;26.30;;;;;;5102086;28;19938;-55
2022/04/10 00:58:56;;;;;;;;;;;21.20;26.20;;;;;;5125501;27;19923;-59
2022/04/10 01:01:22;;;;;;;;;;;20.90;26.50;;;;;;5122223;28;19991;-56
2022/04/10 01:03:47;;;;;;;;;;;21.10;26.20;;;;;;5128953;28;19927;-59
2022/04/10 01:06:13;;;;;;;;;;;21.10;26.20;;;;;;5123473;28;19986;-53
2022/04/10 01:08:39;;;;;;;;;;;21.20;26.00;;;;;;5124223;28;20355;-59
2022/04/10 01:11:05;;;;;;;;;;;21.00;26.40;;;;;;5111358;28;19930;-59
2022/04/10 01:13:31;;;;;;;;;;;21.10;26.30;;;;;;5087733;28;19929;-59
2022/04/10 01:15:56;;;;;;;;;;;21.10;26.30;;;;;;5104948;28;19932;-54
2022/04/10 01:18:22;;;;;;;;;;;21.10;26.20;;;;;;5108088;28;19924;-58
2022/04/10 01:20:48;;;;;;;;;;;21.10;26.30;;;;;;5104247;28;19976;-59
2022/04/10 01:23:14;;;;;;;;;;;21.20;26.20;;;;;;5127433;28;19931;-60
2022/04/10 01:25:39;;;;;;;;;;;20.90;26.40;;;;;;5123801;28;19935;-59
2022/04/10 01:28:12;;;;;;;;;;;21.10;26.30;;;;;;5123846;28;20615;-54
2022/04/10 01:30:38;;;;;;;;;;;21.20;26.20;;;;;;5128417;28;20115;-59
2022/04/10 01:33:05;;;;;;;;;;;21.00;26.40;;;;;;5123789;28;20453;-56
2022/04/10 01:35:30;;;;;;;;;;;21.10;26.20;;;;;;5123528;28;19954;-59
2022/04/10 01:37:56;;;;;;;;;;;21.00;26.30;;;;;;5108801;28;19962;-59
2022/04/10 01:40:22;;;;;;;;;;;21.10;26.20;;;;;;5104682;28;19930;-55
2022/04/10 01:42:48;;;;;;;;;;;21.00;26.30;;;;;;5123838;28;19936;-58
2022/04/10 01:45:14;;;;;;;;;;;21.00;26.30;;;;;;5127787;28;19930;-57
2022/04/10 01:47:39;;;;;;;;;;;21.20;26.20;;;;;;5123841;28;19931;-59
2022/04/10 01:50:05;;;;;;;;;;;21.20;26.10;;;;;;5127937;28;20390;-60
2022/04/10 01:52:31;;;;;;;;;;;21.10;26.30;;;;;;5123707;28;19928;-60
2022/04/10 01:54:57;;;;;;;;;;;21.20;26.10;;;;;;5123056;28;19931;-57
2022/04/10 01:57:23;;;;;;;;;;;21.20;26.10;;;;;;5126983;28;20393;-57
2022/04/10 01:59:48;;;;;;;;;;;21.20;26.20;;;;;;5122235;28;20371;-58
2022/04/10 02:02:14;;;;;;;;;;;21.30;26.20;;;;;;5103414;28;20004;-58
2022/04/10 02:04:40;;;;;;;;;;;21.00;26.30;;;;;;5129104;28;19927;-52
2022/04/10 02:07:06;;;;;;;;;;;21.10;26.20;;;;;;5123055;28;19947;-58
2022/04/10 02:09:31;;;;;;;;;;;21.10;26.30;;;;;;5127937;28;19923;-53
2022/04/10 02:11:57;;;;;;;;;;;21.10;26.30;;;;;;5123489;27;20291;-59
2022/04/10 02:14:23;;;;;;;;;;;21.00;26.40;;;;;;5102773;28;19930;-58
2022/04/10 02:16:49;;;;;;;;;;;21.10;26.20;;;;;;5127592;28;20389;-61
2022/04/10 02:19:15;;;;;;;;;;;21.00;26.30;;;;;;5121520;28;19927;-54
2022/04/10 02:21:40;;;;;;;;;;;21.20;26.20;;;;;;5102709;28;19944;-59
2022/04/10 02:24:06;;;;;;;;;;;21.00;26.50;;;;;;5128464;28;20081;-59
2022/04/10 02:26:32;;;;;;;;;;;21.20;26.30;;;;;;5122177;28;19923;-54
2022/04/10 02:28:59;;;;;;;;;;;21.10;26.20;;;;;;5128539;28;19923;-60
2022/04/10 02:31:24;;;;;;;;;;;21.00;26.30;;;;;;5122232;28;19924;-52
2022/04/10 02:33:51;;;;;;;;;;;21.20;26.20;;;;;;5120801;28;19970;-59
2022/04/10 02:36:19;;;;;;;;;;;21.10;26.30;;;;;;5107709;28;19928;-59
2022/04/10 02:38:47;;;;;;;;;;;21.00;26.50;;;;;;5121991;28;19974;-57
2022/04/10 02:41:13;;;;;;;;;;;21.10;26.40;;;;;;5122951;28;20215;-56
2022/04/10 02:43:39;;;;;;;;;;;21.00;26.40;;;;;;5128139;28;19923;-59
2022/04/10 02:46:05;;;;;;;;;;;21.10;26.30;;;;;;5121786;28;19923;-59
2022/04/10 02:48:32;;;;;;;;;;;20.80;26.70;;;;;;5126396;28;19923;-57
2022/04/10 02:50:57;;;;;;;;;;;21.00;26.50;;;;;;5123238;28;20065;-58
2022/04/10 02:53:23;;;;;;;;;;;21.10;26.40;;;;;;5121441;28;19999;-59
2022/04/10 02:55:49;;;;;;;;;;;21.10;26.40;;;;;;5126212;28;20655;-55
2022/04/10 02:58:15;;;;;;;;;;;21.00;26.40;;;;;;5122577;28;20409;-59
2022/04/10 03:00:40;;;;;;;;;;;21.00;26.40;;;;;;5103853;28;19946;-59
2022/04/10 03:03:06;;;;;;;;;;;21.20;26.20;;;;;;5126817;28;19923;-59
2022/04/10 03:05:32;;;;;;;;;;;21.10;26.30;;;;;;5122454;28;20226;-52
2022/04/10 03:07:58;;;;;;;;;;;21.20;26.20;;;;;;5123737;28;20022;-59
2022/04/10 03:10:23;;;;;;;;;;;21.00;26.40;;;;;;5124168;28;20382;-59
2022/04/10 03:12:49;;;;;;;;;;;21.20;26.20;;;;;;5101741;28;20332;-58
2022/04/10 03:15:15;;;;;;;;;;;21.00;26.30;;;;;;5125981;28;20888;-60
2022/04/10 03:17:41;;;;;;;;;;;21.10;26.20;;;;;;5122165;28;20006;-58
2022/04/10 03:20:07;;;;;;;;;;;21.30;26.00;;;;;;5103976;28;20451;-59
2022/04/10 03:22:33;;;;;;;;;;;20.90;26.40;;;;;;5125715;27;19931;-59
2022/04/10 03:24:58;;;;;;;;;;;21.10;26.20;;;;;;5121896;28;19924;-59
2022/04/10 03:27:24;;;;;;;;;;;21.20;26.20;;;;;;5121196;28;20358;-59
2022/04/10 03:29:50;;;;;;;;;;;21.00;26.30;;;;;;5125609;28;19934;-59
2022/04/10 03:32:16;;;;;;;;;;;21.10;26.20;;;;;;5120773;28;20398;-59
2022/04/10 03:34:42;;;;;;;;;;;20.90;26.40;;;;;;5127138;28;19939;-59
2022/04/10 03:37:08;;;;;;;;;;;21.10;26.20;;;;;;5122134;28;20014;-56
2022/04/10 03:39:33;;;;;;;;;;;21.00;26.20;;;;;;5122002;28;19927;-59
2022/04/10 03:41:59;;;;;;;;;;;21.10;26.20;;;;;;5126371;28;19930;-57
2022/04/10 03:44:25;;;;;;;;;;;21.10;26.20;;;;;;5121791;28;19931;-59
2022/04/10 03:46:51;;;;;;;;;;;21.10;26.10;;;;;;5101785;28;20407;-58
2022/04/10 03:49:16;;;;;;;;;;;21.20;26.00;;;;;;5126077;28;19927;-59
2022/04/10 03:51:42;;;;;;;;;;;21.00;26.20;;;;;;5119975;28;19930;-57
2022/04/10 03:54:08;;;;;;;;;;;21.10;26.10;;;;;;5127195;28;19975;-57
2022/04/10 03:56:34;;;;;;;;;;;21.10;26.10;;;;;;5121795;28;20445;-59
2022/04/10 03:59:00;;;;;;;;;;;21.10;26.00;;;;;;5120625;28;19932;-59
2022/04/10 04:01:25;;;;;;;;;;;21.10;26.00;;;;;;5126899;28;19923;-53
2022/04/10 04:03:51;;;;;;;;;;;21.20;25.90;;;;;;5120820;28;19939;-59
2022/04/10 04:06:17;;;;;;;;;;;21.20;25.90;;;;;;5119217;28;20474;-60
2022/04/10 04:08:43;;;;;;;;;;;21.00;25.90;;;;;;5125951;28;20335;-50
2022/04/10 04:11:09;;;;;;;;;;;21.10;25.70;;;;;;5120158;28;19931;-59
2022/04/10 04:13:38;;;;;;;;;;;21.00;25.90;;;;;;5127100;28;19939;-57
2022/04/10 04:16:04;;;;;;;;;;;21.20;25.70;;;;;;5122443;28;19988;-58
2022/04/10 04:18:30;;;;;;;;;;;21.20;25.70;;;;;;5120499;28;19924;-54
2022/04/10 04:20:56;;;;;;;;;;;21.20;25.70;;;;;;5126725;28;20293;-59
2022/04/10 04:23:21;;;;;;;;;;;21.20;25.70;;;;;;5119621;28;19923;-54
2022/04/10 04:25:47;;;;;;;;;;;21.10;25.70;;;;;;5119486;28;19924;-58
2022/04/10 04:28:13;;;;;;;;;;;21.10;25.80;;;;;;5106613;28;19930;-58
2022/04/10 04:30:39;;;;;;;;;;;21.20;25.60;;;;;;5102531;28;19927;-54
2022/04/10 04:33:04;;;;;;;;;;;21.10;25.70;;;;;;5123708;28;21035;-58
2022/04/10 04:35:30;;;;;;;;;;;21.10;25.70;;;;;;5103721;28;19930;-50
2022/04/10 04:37:57;;;;;;;;;;;21.10;25.60;;;;;;5120612;28;19923;-57
2022/04/10 04:40:23;;;;;;;;;;;21.00;25.70;;;;;;5126075;28;20386;-57
2022/04/10 04:42:49;;;;;;;;;;;21.20;25.60;;;;;;5118818;28;19931;-60
2022/04/10 04:45:16;;;;;;;;;;;21.20;25.60;;;;;;5119904;28;19968;-57
2022/04/10 04:47:42;;;;;;;;;;;21.10;25.70;;;;;;5124776;28;20018;-58
2022/04/10 04:50:08;;;;;;;;;;;21.20;25.60;;;;;;5121056;28;19924;-59
2022/04/10 04:52:34;;;;;;;;;;;20.80;26.00;;;;;;5120754;28;20382;-58
2022/04/10 04:55:00;;;;;;;;;;;21.10;25.70;;;;;;5125181;28;19925;-60
2022/04/10 04:57:26;;;;;;;;;;;21.10;25.70;;;;;;5102745;28;19927;-58
2022/04/10 04:59:51;;;;;;;;;;;21.20;25.70;;;;;;5125276;28;20373;-53
2022/04/10 05:02:17;;;;;;;;;;;21.10;25.70;;;;;;5118939;28;19949;-58
2022/04/10 05:04:43;;;;;;;;;;;21.20;25.60;;;;;;5119382;28;19930;-57
2022/04/10 05:07:09;;;;;;;;;;;21.10;25.70;;;;;;5125620;28;20269;-52
2022/04/10 05:09:34;;;;;;;;;;;21.10;25.70;;;;;;5102114;28;20044;-59
2022/04/10 05:12:00;;;;;;;;;;;21.10;25.70;;;;;;5120323;28;19931;-59
2022/04/10 05:14:26;;;;;;;;;;;21.20;25.60;;;;;;5125066;28;19931;-57
2022/04/10 05:16:52;;;;;;;;;;;21.00;25.70;;;;;;5120377;28;19932;-50
2022/04/10 05:19:17;;;;;;;;;;;21.20;25.50;;;;;;5123558;28;20284;-60
2022/04/10 05:21:43;;;;;;;;;;;21.00;25.80;;;;;;5119469;28;19923;-56
2022/04/10 05:24:09;;;;;;;;;;;21.10;25.60;;;;;;5118474;28;20006;-60
2022/04/10 05:26:35;;;;;;;;;;;21.00;25.70;;;;;;5125736;28;19923;-59
2022/04/10 05:29:01;;;;;;;;;;;21.20;25.50;;;;;;5120342;28;20287;-57
2022/04/10 05:31:27;;;;;;;;;;;21.10;25.50;;;;;;5119159;28;20240;-59
2022/04/10 05:33:53;;;;;;;;;;;21.20;25.50;;;;;;5125955;28;19935;-60
2022/04/10 05:36:19;;;;;;;;;;;21.00;25.70;;;;;;5119593;28;19923;-53
2022/04/10 05:38:46;;;;;;;;;;;21.10;25.60;;;;;;5123672;28;20382;-56
2022/04/10 05:41:12;;;;;;;;;;;21.10;25.60;;;;;;5119119;28;19928;-59
2022/04/10 05:43:38;;;;;;;;;;;21.20;25.50;;;;;;5118850;28;20290;-49
2022/04/10 05:46:03;;;;;;;;;;;21.00;25.60;;;;;;5127098;27;19928;-58
2022/04/10 05:48:29;;;;;;;;;;;21.10;25.60;;;;;;5123945;28;20372;-51
2022/04/10 05:50:55;;;;;;;;;;;21.10;25.50;;;;;;5122427;28;20274;-60
2022/04/10 05:53:21;;;;;;;;;;;21.10;25.60;;;;;;5128925;28;19923;-52
2022/04/10 05:55:46;;;;;;;;;;;21.20;25.50;;;;;;5121998;28;20279;-57
2022/04/10 05:58:13;;;;;;;;;;;21.20;25.50;;;;;;5125951;28;19930;-58
2022/04/10 06:00:38;;;;;;;;;;;21.10;25.60;;;;;;5105775;28;19981;-57
2022/04/10 06:03:04;;;;;;;;;;;21.20;25.40;;;;;;5105003;28;19923;-57
2022/04/10 06:05:30;;;;;;;;;;;21.00;25.60;;;;;;5128917;28;20326;-49
2022/04/10 06:07:56;;;;;;;;;;;21.20;25.40;;;;;;5122624;28;20118;-60
2022/04/10 06:10:22;;;;;;;;;;;21.10;25.60;;;;;;5123124;28;19924;-56
2022/04/10 06:12:47;;;;;;;;;;;21.20;25.40;;;;;;5128533;28;20072;-59
2022/04/10 06:15:16;;;;;;;;;;;21.10;25.40;;;;;;5103023;28;19953;-50
2022/04/10 06:17:42;;;;;;;;;;;21.20;25.40;;;;;;5122699;28;19923;-57
2022/04/10 06:20:08;;;;;;;;;;;21.10;25.40;;;;;;5126904;28;19931;-59
2022/04/10 06:22:34;;;;;;;;;;;21.00;25.60;;;;;;5122929;28;19923;-59
2022/04/10 06:24:59;;;;;;;;;;;21.20;25.40;;;;;;5128443;28;19927;-57
2022/04/10 06:27:25;;;;;;;;;;;21.00;25.60;;;;;;5121798;28;20022;-47
2022/04/10 06:29:51;;;;;;;;;;;21.10;25.50;;;;;;5122944;28;19932;-59
2022/04/10 06:32:17;;;;;;;;;;;21.10;25.50;;;;;;5127350;28;19927;-59
2022/04/10 06:34:42;;;;;;;;;;;21.10;25.50;;;;;;5121288;28;20378;-58
2022/04/10 06:37:08;;;;;;;;;;;21.20;25.40;;;;;;5121734;28;19924;-59
2022/04/10 06:39:34;;;;;;;;;;;21.10;25.50;;;;;;5128103;28;20027;-49
2022/04/10 06:42:00;;;;;;;;;;;21.10;25.50;;;;;;5122939;28;20286;-57
2022/04/10 06:44:26;;;;;;;;;;;21.10;25.40;;;;;;5109725;28;19965;-59
2022/04/10 06:46:51;;;;;;;;;;;21.10;25.40;;;;;;5121993;28;19942;-52
2022/04/10 06:49:18;;;;;;;;;;;21.20;25.30;;;;;;5122668;28;19927;-58
2022/04/10 06:51:43;;;;;;;;;;;21.00;25.50;;;;;;5125847;28;20026;-58
2022/04/10 06:54:09;;;;;;;;;;;21.10;25.30;;;;;;5101895;28;19923;-59
2022/04/10 06:56:35;;;;;;;;;;;21.20;25.30;;;;;;5120627;27;19923;-59
2022/04/10 06:59:01;;;;;;;;;;;21.00;25.70;;;;;;5127335;28;20379;-52
2022/04/10 07:01:26;;;;;;;;;;;21.30;25.40;;;;;;5122349;28;19927;-57
2022/04/10 07:03:52;;;;;;;;;;;21.00;25.60;;;;;;5126556;28;19923;-60
2022/04/10 07:06:18;;;;;;;;;;;21.20;25.40;;;;;;5103877;28;19927;-60
2022/04/10 07:08:44;;;;;;;;;;;21.10;25.60;;;;;;5121729;28;20294;-57
2022/04/10 07:11:10;;;;;;;;;;;21.20;25.50;;;;;;5125847;28;19924;-57
2022/04/10 07:13:36;;;;;;;;;;;21.10;25.70;;;;;;5121080;28;20148;-53
2022/04/10 07:16:02;;;;;;;;;;;21.20;25.60;;;;;;5121413;28;20446;-59
2022/04/10 07:18:28;;;;;;;;;;;21.10;25.80;;;;;;5127824;28;19958;-59
2022/04/10 07:20:53;;;;;;;;;;;21.20;25.50;;;;;;5122403;28;19924;-58
2022/04/10 07:26:07;;;;;;;;;;;21.20;25.50;;;;;;5127624;28;19927;-59
2022/04/10 07:28:33;;;;;;;;;;;21.10;25.50;;;;;;5101848;28;19929;-51
2022/04/10 07:30:59;;;;;;;;;;;21.00;25.70;;;;;;5126677;28;19924;-59
2022/04/10 07:33:25;;;;;;;;;;;21.10;25.60;;;;;;5120043;28;19931;-50
2022/04/10 07:35:51;;;;;;;;;;;21.20;25.60;;;;;;5121963;28;19928;-60
2022/04/10 07:38:17;;;;;;;;;;;21.00;25.90;;;;;;5127441;28;19923;-59
2022/04/10 07:40:43;;;;;;;;;;;21.20;25.60;;;;;;5120732;28;19923;-59
2022/04/10 07:43:09;;;;;;;;;;;21.00;25.80;;;;;;5121697;28;20367;-57
2022/04/10 07:48:19;;;;;;;;;;;20.90;25.90;;;;;;5120096;28;19923;-58
2022/04/10 07:50:45;;;;;;;;;;;21.10;25.60;;;;;;5120660;28;20341;-55
2022/04/10 07:53:11;;;;;;;;;;;21.20;25.40;;;;;;5126726;28;19924;-61
2022/04/10 07:55:37;;;;;;;;;;;21.10;25.50;;;;;;5103448;28;20374;-57
2022/04/10 07:58:02;;;;;;;;;;;21.20;25.40;;;;;;5126986;28;19934;-59
2022/04/10 08:00:32;;;;;;;;;;;21.00;25.50;;;;;;5120466;28;20002;-51
2022/04/10 08:02:58;;;;;;;;;;;21.20;25.20;;;;;;5121427;28;19924;-59
2022/04/10 08:05:24;;;;;;;;;;;21.00;25.40;;;;;;5124877;28;19923;-54
2022/04/10 08:07:50;;;;;;;;;;;21.20;25.10;;;;;;5120655;28;20364;-58
2022/04/10 08:10:16;;;;;;;;;;;21.10;25.20;;;;;;5119538;27;19923;-55
2022/04/10 08:12:42;;;;;;;;;;;21.10;25.20;;;;;;5126965;28;20010;-60
2022/04/10 08:15:08;;;;;;;;;;;21.10;25.30;;;;;;5121561;28;19923;-58
2022/04/10 08:17:33;;;;;;;;;;;20.90;25.20;;;;;;5124086;28;19927;-54
2022/04/10 08:20:03;;;;;;;;;;;21.30;24.90;;;;;;5123584;28;20346;-60
2022/04/10 08:22:29;;;;;;;;;;;21.00;25.10;;;;;;5120444;28;20422;-57
2022/04/10 08:24:59;;;;;;;;;;;21.10;24.90;;;;;;5124594;28;19923;-60
2022/04/10 08:27:26;;;;;;;;;;;20.90;25.20;;;;;;5120018;28;19931;-54
2022/04/10 08:29:51;;;;;;;;;;;21.20;25.00;;;;;;5120213;28;19928;-59
2022/04/10 08:32:17;;;;;;;;;;;20.90;25.20;;;;;;5126540;28;19923;-58
2022/04/10 08:34:43;;;;;;;;;;;21.20;24.90;;;;;;5121188;28;19934;-54
2022/04/10 08:37:09;;;;;;;;;;;21.10;25.00;;;;;;5120061;28;19976;-59
2022/04/10 08:39:34;;;;;;;;;;;21.20;25.00;;;;;;5106738;28;20398;-59
2022/04/10 08:42:01;;;;;;;;;;;21.00;25.10;;;;;;5119425;28;20459;-50
2022/04/10 08:44:27;;;;;;;;;;;21.30;24.90;;;;;;5125349;28;19931;-55
2022/04/10 08:46:53;;;;;;;;;;;21.00;25.00;;;;;;5100840;28;19923;-56
2022/04/10 08:49:19;;;;;;;;;;;21.20;24.80;;;;;;5120981;28;20298;-60
2022/04/10 08:51:45;;;;;;;;;;;20.90;25.20;;;;;;5107952;28;19927;-58
2022/04/10 08:54:10;;;;;;;;;;;21.20;25.00;;;;;;5119869;28;20406;-54
2022/04/10 08:56:36;;;;;;;;;;;21.00;25.20;;;;;;5100923;28;19934;-52
2022/04/10 08:59:02;;;;;;;;;;;21.30;25.10;;;;;;5125644;28;20241;-57
2022/04/10 09:01:28;;;;;;;;;;;21.00;25.20;;;;;;5118509;28;19932;-57
2022/04/10 09:03:53;;;;;;;;;;;21.30;25.00;;;;;;5125174;28;20469;-54
2022/04/10 09:06:19;;;;;;;;;;;21.00;25.20;;;;;;5119500;28;19924;-60
2022/04/10 09:08:45;;;;;;;;;;;21.10;25.10;;;;;;5120728;28;20428;-58
2022/04/10 09:11:11;;;;;;;;;;;21.10;24.90;;;;;;5126018;28;19927;-58
2022/04/10 09:13:38;;;;;;;;;;;21.20;24.60;;;;;;5119536;28;20397;-60
2022/04/10 09:16:16;;;;;;;;;;;21.00;24.70;;;;;;5120860;28;20095;-59
2022/04/10 09:18:48;;;;;;;;;;;21.30;24.50;;;;;;5124462;28;19984;-57
2022/04/10 09:21:14;;;;;;;;;;;20.80;24.80;;;;;;5120966;27;19924;-57
2022/04/10 09:23:40;;;;;;;;;;;21.20;24.50;;;;;;5122587;28;20095;-58
2022/04/10 09:26:06;;;;;;;;;;;21.10;24.70;;;;;;5129633;28;19935;-59
2022/04/10 09:28:42;;;;;;;;;;;21.20;24.50;;;;;;5124185;28;20024;-48
2022/04/10 09:31:27;;;;;;;;;;;21.00;24.50;;;;;;5108012;28;20335;-60
2022/04/10 09:33:53;;;;;;;;;;;21.20;24.30;;;;;;5129636;28;19930;-59
2022/04/10 09:36:28;;;;;;;;;;;21.00;24.40;;;;;;5104531;28;19924;-48
2022/04/10 09:38:54;;;;;;;;;;;21.30;24.10;;;;;;5124345;28;19928;-60
2022/04/10 09:41:20;;;;;;;;;;;21.10;24.30;;;;;;5125998;28;20322;-57
2022/04/10 09:43:46;;;;;;;;;;;21.20;24.20;;;;;;5123165;28;19949;-59
2022/04/10 09:46:13;;;;;;;;;;;21.00;24.40;;;;;;5129349;28;20407;-50
2022/04/10 09:48:38;;;;;;;;;;;21.30;24.30;;;;;;5123761;28;20232;-59
2022/04/10 09:51:05;;;;;;;;;;;20.90;24.70;;;;;;5122564;28;20379;-59
2022/04/10 09:53:32;;;;;;;;;;;21.20;24.40;;;;;;5128945;28;19930;-56
2022/04/10 09:55:58;;;;;;;;;;;21.00;24.30;;;;;;5103274;28;19930;-53
2022/04/10 09:58:24;;;;;;;;;;;21.20;23.90;;;;;;5122777;28;19982;-50
2022/04/10 10:00:52;;;;;;;;;;;21.20;23.70;;;;;;5127047;28;19927;-57
2022/04/10 10:03:17;;;;;;;;;;;21.20;23.50;;;;;;5104372;28;19924;-53
2022/04/10 10:05:43;;;;;;;;;;;21.10;23.40;;;;;;5129029;28;19923;-53
2022/04/10 10:08:09;;;;;;;;;;;21.20;23.20;;;;;;5122413;28;20414;-59
2022/04/10 10:10:38;;;;;;;;;;;21.00;23.30;;;;;;5123336;28;20285;-58
2022/04/10 10:13:05;;;;;;;;;;;21.30;23.00;;;;;;5128039;28;19930;-59
2022/04/10 10:15:31;;;;;;;;;;;21.00;23.20;;;;;;5121213;28;20395;-57
2022/04/10 10:17:57;;;;;;;;;;;21.20;23.10;;;;;;5122227;28;20270;-56
2022/04/10 10:20:23;;;;;;;;;;;20.80;23.40;;;;;;5127580;28;20287;-59
2022/04/10 10:22:50;;;;;;;;;;;21.20;23.10;;;;;;5122893;28;19924;-57
2022/04/10 10:25:24;;;;;;;;;;;21.10;23.30;;;;;;5107876;28;19927;-50
2022/04/10 10:28:09;;;;;;;;;;;21.20;23.00;;;;;;5108034;28;20393;-59
2022/04/10 10:30:35;;;;;;;;;;;21.00;23.00;;;;;;5122790;28;20396;-57
2022/04/10 10:33:19;;;;;;;;;;;21.00;23.10;;;;;;5123967;27;19924;-59
2022/04/10 10:35:49;;;;;;;;;;;21.20;23.10;;;;;;5109388;28;19927;-59
2022/04/10 10:38:33;;;;;;;;;;;21.00;23.60;;;;;;5121216;28;19924;-59
2022/04/10 10:41:08;;;;;;;;;;;21.20;23.70;;;;;;5123055;28;20430;-59
2022/04/10 10:43:34;;;;;;;;;;;20.90;24.30;;;;;;5127981;28;20419;-58
2022/04/10 10:46:00;;;;;;;;;;;21.10;24.40;;;;;;5121645;28;19923;-57
2022/04/10 10:48:32;;;;;;;;;;;21.10;24.60;;;;;;5128229;28;20023;-54
2022/04/10 10:51:10;;;;;;;;;;;21.20;24.70;;;;;;5123373;28;20010;-59
2022/04/10 10:53:55;;;;;;;;;;;21.00;25.00;;;;;;5121689;28;19934;-58
2022/04/10 10:56:32;;;;;;;;;;;21.30;24.80;;;;;;5122251;28;19930;-59
2022/04/10 10:59:16;;;;;;;;;;;20.90;25.20;;;;;;5127988;28;19934;-50
2022/04/10 11:02:02;;;;;;;;;;;21.20;25.00;;;;;;5122568;28;20413;-59
2022/04/10 11:04:30;;;;;;;;;;;21.10;25.30;;;;;;5103117;28;20018;-58
2022/04/10 11:07:08;;;;;;;;;;;21.20;25.20;;;;;;5109156;28;20018;-60
2022/04/10 11:09:37;;;;;;;;;;;21.00;25.60;;;;;;5120829;28;20029;-56
2022/04/10 11:12:12;;;;;;;;;;;21.20;25.20;;;;;;5121193;28;20239;-58
2022/04/10 11:14:39;;;;;;;;;;;21.00;25.30;;;;;;5107687;28;19924;-58
2022/04/10 11:17:09;;;;;;;;;;;21.30;24.70;;;;;;5104181;28;19930;-61
2022/04/10 11:19:38;;;;;;;;;;;21.00;24.80;;;;;;5123515;28;19923;-57
2022/04/10 11:22:04;;;;;;;;;;;21.20;24.30;;;;;;5106289;28;20227;-58
2022/04/10 11:24:29;;;;;;;;;;;20.80;24.30;;;;;;5121999;28;19927;-59
2022/04/10 11:26:55;;;;;;;;;;;21.10;24.00;;;;;;5127063;28;19923;-55
2022/04/10 11:29:21;;;;;;;;;;;21.10;24.00;;;;;;5120328;28;19923;-59
2022/04/10 11:31:51;;;;;;;;;;;21.10;24.10;;;;;;5121290;28;20463;-56
2022/04/10 11:34:20;;;;;;;;;;;21.20;23.90;;;;;;5108279;28;20007;-59
2022/04/10 11:36:55;;;;;;;;;;;21.00;24.10;;;;;;5122169;28;19928;-47
2022/04/10 11:39:21;;;;;;;;;;;21.10;24.00;;;;;;5122119;28;19927;-50
2022/04/10 11:41:47;;;;;;;;;;;21.30;23.80;;;;;;5126273;28;20011;-57
2022/04/10 11:44:13;;;;;;;;;;;20.90;24.10;;;;;;5121000;27;19938;-57
2022/04/10 11:46:39;;;;;;;;;;;21.20;23.90;;;;;;5121919;28;19924;-60
2022/04/10 11:49:05;;;;;;;;;;;21.00;24.20;;;;;;5124476;28;19928;-56
2022/04/10 11:51:30;;;;;;;;;;;21.20;23.90;;;;;;5101506;28;19982;-59
2022/04/10 11:53:59;;;;;;;;;;;21.00;24.20;;;;;;5127236;28;19927;-49
2022/04/10 11:56:25;;;;;;;;;;;21.20;24.00;;;;;;5121584;28;19931;-60
2022/04/10 11:58:51;;;;;;;;;;;20.90;24.30;;;;;;5120672;28;19927;-55
2022/04/10 12:01:20;;;;;;;;;;;21.20;24.10;;;;;;5091551;28;19923;-60
2022/04/10 12:03:49;;;;;;;;;;;21.10;24.30;;;;;;5085588;28;19943;-54
2022/04/10 12:06:19;;;;;;;;;;;21.10;24.20;;;;;;5119533;28;20003;-52
2022/04/10 12:08:45;;;;;;;;;;;21.20;24.30;;;;;;5125990;28;19957;-56
2022/04/10 12:11:10;;;;;;;;;;;21.20;24.50;;;;;;5101893;28;19923;-57
2022/04/10 12:13:39;;;;;;;;;;;21.10;24.80;;;;;;5126812;28;19946;-57
2022/04/10 12:16:09;;;;;;;;;;;21.10;24.90;;;;;;5122754;28;19927;-56
2022/04/10 12:18:51;;;;;;;;;;;21.30;24.80;;;;;;5120037;28;19923;-60
2022/04/10 12:21:18;;;;;;;;;;;20.90;24.90;;;;;;5125841;28;21296;-56
2022/04/10 12:23:45;;;;;;;;;;;21.30;24.40;;;;;;5119088;28;19953;-59
2022/04/10 12:26:11;;;;;;;;;;;21.00;24.50;;;;;;5120180;28;20083;-55
2022/04/10 12:28:37;;;;;;;;;;;21.10;24.30;;;;;;5106160;28;19928;-59
2022/04/10 12:31:03;;;;;;;;;;;21.00;24.40;;;;;;5102681;28;20394;-50
2022/04/10 12:33:29;;;;;;;;;;;21.10;24.00;;;;;;5101622;28;19935;-60
2022/04/10 12:35:55;;;;;;;;;;;21.10;24.00;;;;;;5125482;28;20049;-59
2022/04/10 12:38:21;;;;;;;;;;;21.10;24.10;;;;;;5120911;28;20391;-56
2022/04/10 12:40:47;;;;;;;;;;;21.20;24.20;;;;;;5105258;28;19931;-59
2022/04/10 12:43:13;;;;;;;;;;;21.00;24.50;;;;;;5121116;28;20422;-53
2022/04/10 12:45:39;;;;;;;;;;;21.20;24.50;;;;;;5119926;28;19923;-57
2022/04/10 12:48:24;;;;;;;;;;;21.20;24.50;;;;;;5125086;28;20313;-59
2022/04/10 12:51:11;;;;;;;;;;;20.90;25.10;;;;;;5120693;28;19937;-57
2022/04/10 12:53:37;;;;;;;;;;;21.20;24.90;;;;;;5120451;28;19928;-57
2022/04/10 12:56:03;;;;;;;;;;;20.90;25.40;;;;;;5104873;28;19963;-57
2022/04/10 12:58:29;;;;;;;;;;;21.20;25.40;;;;;;5100740;28;19931;-60
2022/04/10 13:00:55;;;;;;;;;;;21.00;25.60;;;;;;5099935;28;20444;-56
2022/04/10 13:03:24;;;;;;;;;;;21.20;25.30;;;;;;5125372;28;19931;-58
2022/04/10 13:06:08;;;;;;;;;;;21.00;25.40;;;;;;5100749;28;19927;-55
2022/04/10 13:08:37;;;;;;;;;;;21.10;25.20;;;;;;5118610;28;19928;-48
2022/04/10 13:11:07;;;;;;;;;;;21.10;25.30;;;;;;5126000;28;19927;-58
2022/04/10 13:13:51;;;;;;;;;;;21.00;25.30;;;;;;5099849;28;19923;-56
2022/04/10 13:16:17;;;;;;;;;;;21.20;25.00;;;;;;5120522;28;19932;-59
2022/04/10 13:18:43;;;;;;;;;;;21.20;25.00;;;;;;5124062;28;20330;-59
2022/04/10 13:21:08;;;;;;;;;;;20.80;25.30;;;;;;5119011;28;19981;-54
2022/04/10 13:23:34;;;;;;;;;;;21.20;25.10;;;;;;5099279;28;19931;-58
2022/04/10 13:26:00;;;;;;;;;;;20.90;25.30;;;;;;5125958;28;20455;-59
2022/04/10 13:28:26;;;;;;;;;;;21.00;25.20;;;;;;5120516;28;20287;-52
2022/04/10 13:30:52;;;;;;;;;;;21.20;25.10;;;;;;5125096;28;20306;-56
2022/04/10 13:33:18;;;;;;;;;;;21.10;25.30;;;;;;5120018;28;19931;-51
2022/04/10 13:35:43;;;;;;;;;;;21.10;25.40;;;;;;5120066;28;20013;-57
2022/04/10 13:38:09;;;;;;;;;;;21.20;25.50;;;;;;5123620;28;20438;-57
2022/04/10 13:40:35;;;;;;;;;;;21.00;25.60;;;;;;5101254;28;19927;-50
2022/04/10 13:43:01;;;;;;;;;;;21.10;25.70;;;;;;5118594;28;19950;-53
2022/04/10 13:45:27;;;;;;;;;;;21.10;25.70;;;;;;5125726;28;19957;-56
2022/04/10 13:47:52;;;;;;;;;;;21.10;25.80;;;;;;5120080;28;20375;-59
2022/04/10 13:50:18;;;;;;;;;;;20.90;26.10;;;;;;5106085;28;19932;-55
2022/04/10 13:52:44;;;;;;;;;;;21.20;25.80;;;;;;5120123;28;19930;-58
2022/04/10 13:55:10;;;;;;;;;;;21.10;26.10;;;;;;5119246;28;19923;-51
2022/04/10 13:57:35;;;;;;;;;;;21.00;26.10;;;;;;5123823;28;19974;-59
2022/04/10 14:00:01;;;;;;;;;;;21.10;26.10;;;;;;5100486;28;19930;-53
2022/04/10 14:02:27;;;;;;;;;;;21.10;26.10;;;;;;5119321;28;19950;-50
2022/04/10 14:04:53;;;;;;;;;;;21.20;25.90;;;;;;5125326;28;19923;-59
2022/04/10 14:07:19;;;;;;;;;;;20.90;26.10;;;;;;5121425;27;20014;-59
2022/04/10 14:09:45;;;;;;;;;;;21.30;25.80;;;;;;5127446;28;20314;-57
2022/04/10 14:12:10;;;;;;;;;;;21.10;26.20;;;;;;5123827;28;19923;-58
2022/04/10 14:14:36;;;;;;;;;;;21.10;26.20;;;;;;5121453;28;19923;-54
2022/04/10 14:17:02;;;;;;;;;;;21.10;26.10;;;;;;5127765;28;19928;-59
2022/04/10 14:19:28;;;;;;;;;;;21.00;26.20;;;;;;5121437;28;19939;-58
2022/04/10 14:21:54;;;;;;;;;;;20.90;26.40;;;;;;5123108;28;20425;-50